This is the latest recevied weather packets stored in our database for station/object N8GD. If no packets are shown the sender has not sent any weather packets the latest 10 day(s).
| Time | Temp. | Humidity | Pressure | Rain* | Wind** | Luminosity | Snow |
|---|---|---|---|---|---|---|---|
| 1777974762 | 16.11° C | 74% | 1006.7 hPa | 0 mm | - | - | - |
| 1777973862 | 16.11° C | 74% | 1006.7 hPa | 0 mm | - | - | - |
| 1777972964 | 15.56° C | 75% | 1006.5 hPa | 0 mm | - | - | - |
| 1777972062 | 16.11° C | 74% | 1006.4 hPa | 0 mm | - | - | - |
| 1777971163 | 16.11° C | 75% | 1006.3 hPa | 0 mm | - | - | - |
| 1777971104 | 16.11° C | 75% | 1006.3 hPa | 0 mm | - | - | - |
| 1777970263 | 15.56° C | 77% | 1006.5 hPa | 0 mm | - | - | - |
| 1777970207 | 15.56° C | 77% | 1006.5 hPa | 0 mm | - | - | - |
| 1777969363 | 15.56° C | 77% | 1006.4 hPa | 0 mm | - | - | - |
| 1777969302 | 15.56° C | 77% | 1006.4 hPa | 0 mm | - | - | - |
| 1777968463 | 15° C | 78% | 1006.5 hPa | 0 mm | - | - | - |
| 1777967563 | 15° C | 80% | 1006.3 hPa | 0 mm | - | - | - |
| 1777967504 | 15° C | 80% | 1006.3 hPa | 0 mm | - | - | - |
| 1777966663 | 15° C | 80% | 1006.2 hPa | 0 mm | - | - | - |
| 1777965763 | 15.56° C | 78% | 1006.3 hPa | 0 mm | - | - | - |
| 1777965703 | 15.56° C | 78% | 1006.3 hPa | 0.25 mm | - | - | - |
| 1777964863 | 16.11° C | 76% | 1006.2 hPa | 0.25 mm | - | - | - |
| 1777963963 | 16.11° C | 75% | 1006.3 hPa | 0.51 mm | - | - | - |
| 1777963902 | 16.11° C | 75% | 1006.3 hPa | 0.51 mm | - | - | - |
| 1777963063 | 16.11° C | 76% | 1006.5 hPa | 0.51 mm | - | - | - |
| 1777962163 | 16.11° C | 76% | 1006.8 hPa | 0.25 mm | - | - | - |
| 1777962102 | 16.11° C | 76% | 1006.8 hPa | 0.25 mm | - | - | - |
| 1777961263 | 16.67° C | 75% | 1007 hPa | 0.25 mm | - | - | - |
| 1777961225 | 16.67° C | 75% | 1007 hPa | 0.25 mm | - | - | - |
| 1777960363 | 17.22° C | 69% | 1006.9 hPa | 0 mm | - | - | - |
* Rain latest hour (hover to see other rain measurements)
** Current wind speed in m/s (hover to see current wind gust speed)